Flight Track Log - Related Links

Times and Time Zones

All times are in EDT time to prevent confusion due to time zone crossing. See the AAL2360 flight status page for this flight to view local times or setup timezone preferences in your user account.

Time Position Orientation Groundspeed Altitude Reporting Facility
EDT Latitude Longitude Course Direction KTS MPH feet Rate Location/Type
Sat 03:34:37 PM 32.8833 -97.0333 347° North 170 196 1,200  Level Dallas / Fort Worth TRACON
Sat 03:35:55 PM 32.8167 -97.0000 157° South 236 272 3,500 2,000 Climbing Dallas / Fort Worth TRACON
Sat 03:36:49 PM 32.7667 -96.9667 151° Southeast 264 304 5,600 2,421 Climbing Dallas / Fort Worth TRACON
Sat 03:37:00 PM 32.8605 -96.8000 North  Level FlightAware Approximate
Sat 03:37:49 PM 32.7667 -96.8833 90° East 292 336 8,100  Level Dallas / Fort Worth TRACON
Sat 03:38:00 PM 32.9823 -96.8000 North  Level FlightAware Approximate
Sat 03:38:49 PM 32.8167 -96.8167 48° Northeast 319 367 10,200  Level Dallas / Fort Worth TRACON
Sat 03:39:00 PM 33.0987 -96.8425 347° North  Level FlightAware Approximate
Sat 03:40:52 PM 33.0283 -96.8236 358° North 368 423 15,200  Level Fort Worth Center
Sat 03:41:52 PM 33.1306 -96.8553 345° North 374 430 17,400 1,950 Climbing Fort Worth Center
Sat 03:42:52 PM 33.2247 -96.8869 344° North 385 443 19,100 1,850 Climbing Fort Worth Center
Sat 03:43:52 PM 33.3522 -96.9286 345° North 410 472 21,100 1,700 Climbing Fort Worth Center
Sat 03:44:52 PM 33.4544 -96.8856 19° North 422 486 22,500 1,700 Climbing Fort Worth Center
Sat 03:45:52 PM 33.5708 -96.8250 23° Northeast 443 510 24,500 1,700 Climbing Fort Worth Center
Sat 03:46:52 PM 33.6917 -96.7719 20° North 450 518 25,900 1,550 Climbing Fort Worth Center
Sat 03:47:52 PM 33.8125 -96.7161 21° North 455 524 27,600 1,600 Climbing Fort Worth Center
Sat 03:48:52 PM 33.9333 -96.6650 19° North 455 524 29,100 1,450 Climbing Fort Worth Center
Sat 03:49:52 PM 34.0561 -96.6114 20° North 455 524 30,500 1,450 Climbing Fort Worth Center
Sat 03:50:52 PM 34.1808 -96.5550 21° North 450 518 32,000 1,200 Climbing Fort Worth Center
Sat 03:51:52 PM 34.3017 -96.5083 18° North 450 518 32,900 500 Climbing Fort Worth Center
Sat 03:52:52 PM 34.4200 -96.4469 23° Northeast 450 518 33,000 50 Climbing Fort Worth Center
Sat 03:53:52 PM 34.5428 -96.3925 20° North 450 518 33,000  Level Fort Worth Center
Sat 03:54:52 PM 34.6633 -96.3381 20° North 450 518 33,000  Level Fort Worth Center
Sat 03:55:52 PM 34.7858 -96.2808 21° North 457 526 33,000  Level Fort Worth Center
Sat 03:56:52 PM 34.9083 -96.2261 20° North 462 532 33,000  Level Fort Worth Center
Sat 03:57:52 PM 35.0267 -96.1711 21° North 462 532 33,000  Level Fort Worth Center
Sat 03:58:52 PM 35.1472 -96.1161 20° North 462 532 33,000  Level Fort Worth Center
Sat 03:59:52 PM 35.2697 -96.0608 20° North 468 539 33,000  Level Fort Worth Center
Sat 04:01:06 PM 35.3992 -96.0003 21° North 462 532 33,000  Level Kansas City Center
Sat 04:02:07 PM 35.5200 -95.9453 20° North 463 533 33,000  Level Kansas City Center
Sat 04:03:08 PM 35.6408 -95.8889 21° North 462 532 33,000  Level Kansas City Center
Sat 04:04:12 PM 35.7636 -95.7772 36° Northeast 460 529 33,000  Level Kansas City Center
Sat 04:05:12 PM 35.8583 -95.6667 43° Northeast 467 537 33,000  Level Kansas City Center
Sat 04:06:14 PM 35.9539 -95.5606 42° Northeast 463 533 33,000  Level Kansas City Center
Sat 04:07:15 PM 36.0508 -95.4542 42° Northeast 467 537 33,000  Level Kansas City Center
Sat 04:08:16 PM 36.1517 -95.3414 42° Northeast 464 534 33,000  Level Kansas City Center
Sat 04:09:19 PM 36.2481 -95.2325 42° Northeast 467 537 33,000  Level Kansas City Center
Sat 04:10:20 PM 36.3447 -95.1258 42° Northeast 467 537 33,000  Level Kansas City Center
Sat 04:11:23 PM 36.4500 -95.0075 42° Northeast 466 536 33,000  Level Kansas City Center
Sat 04:12:23 PM 36.5447 -94.9014 42° Northeast 462 532 33,000  Level Kansas City Center
Sat 04:13:24 PM 36.6394 -94.7947 42° Northeast 461 531 33,000  Level Kansas City Center
Sat 04:14:28 PM 36.7347 -94.6872 42° Northeast 462 532 33,000  Level Kansas City Center
Sat 04:15:29 PM 36.8306 -94.5772 43° Northeast 465 535 33,000  Level Kansas City Center
Sat 04:16:30 PM 36.9264 -94.4681 42° Northeast 466 536 33,000  Level Kansas City Center
Sat 04:17:31 PM 37.0406 -94.3372 42° Northeast 464 534 33,000  Level Kansas City Center
Sat 04:18:32 PM 37.1353 -94.2261 43° Northeast 465 535 33,000  Level Kansas City Center
Sat 04:19:36 PM 37.2300 -94.1161 43° Northeast 464 534 33,000  Level Kansas City Center
Sat 04:20:36 PM 37.3164 -94.0089 45° Northeast 463 533 33,000  Level Kansas City Center
Sat 04:21:37 PM 37.3950 -93.8794 53° Northeast 465 535 33,000  Level Kansas City Center
Sat 04:22:38 PM 37.4739 -93.7519 52° Northeast 463 533 33,000  Level Kansas City Center
Sat 04:23:41 PM 37.5758 -93.6061 49° Northeast 461 531 33,000  Level Kansas City Center
Sat 04:24:43 PM 37.6733 -93.5000 41° Northeast 459 528 33,000  Level Kansas City Center
Sat 04:25:45 PM 37.7686 -93.3906 42° Northeast 459 528 33,000  Level Kansas City Center
Sat 04:26:46 PM 37.8633 -93.2811 42° Northeast 460 529 33,000  Level Kansas City Center
Sat 04:27:47 PM 37.9594 -93.1706 42° Northeast 462 532 33,000  Level Kansas City Center
Sat 04:28:48 PM 38.0556 -93.0597 42° Northeast 462 532 33,000  Level Kansas City Center
Sat 04:29:51 PM 38.1519 -92.9492 42° Northeast 462 532 33,000  Level Kansas City Center
Sat 04:30:52 PM 38.2475 -92.8378 42° Northeast 462 532 33,000  Level Kansas City Center
Sat 04:31:55 PM 38.3431 -92.7261 42° Northeast 460 529 33,000  Level Kansas City Center
Sat 04:32:56 PM 38.4364 -92.6144 43° Northeast 457 526 33,000  Level Kansas City Center
Sat 04:33:58 PM 38.5314 -92.5033 42° Northeast 458 527 33,000  Level Kansas City Center
Sat 04:34:59 PM 38.6442 -92.3686 43° Northeast 458 527 33,000  Level Kansas City Center
Sat 04:36:00 PM 38.7383 -92.2572 43° Northeast 458 527 33,000  Level Kansas City Center
Sat 04:37:03 PM 38.8317 -92.1461 43° Northeast 456 525 33,000  Level Kansas City Center
Sat 04:38:06 PM 38.9247 -92.0344 43° Northeast 456 525 33,000  Level Kansas City Center
Sat 04:39:06 PM 39.0214 -91.9219 42° Northeast 463 533 33,000  Level Kansas City Center
Sat 04:40:08 PM 39.1247 -91.8178 38° Northeast 470 541 33,000  Level Kansas City Center
Sat 04:41:09 PM 39.2267 -91.7131 38° Northeast 468 539 33,000  Level Kansas City Center
Sat 04:42:12 PM 39.3403 -91.5922 39° Northeast 474 545 33,000  Level Kansas City Center
Sat 04:43:14 PM 39.4419 -91.4847 39° Northeast 474 545 33,000  Level Kansas City Center
Sat 04:44:14 PM 39.5372 -91.3819 40° Northeast 470 541 33,000  Level Kansas City Center
Sat 04:45:15 PM 39.6419 -91.2700 39° Northeast 468 539 33,000  Level Kansas City Center
Sat 04:46:18 PM 39.7431 -91.1614 40° Northeast 468 539 33,000  Level Kansas City Center
Sat 04:47:20 PM 39.8567 -91.0378 40° Northeast 473 544 33,000  Level Kansas City Center
Sat 04:48:21 PM 39.9628 -90.9231 40° Northeast 477 549 33,000 -484 Level Kansas City Center
Sat 04:49:24 PM 40.0625 -90.8117 41° Northeast 475 547 32,000 -1,016 Descending Kansas City Center
Sat 04:50:25 PM 40.1642 -90.7028 39° Northeast 473 544 30,900 -1,073 Descending Kansas City Center
Sat 04:51:27 PM 40.2653 -90.5919 40° Northeast 472 543 29,800 -927 Descending Kansas City Center
Sat 04:52:28 PM 40.3678 -90.4772 40° Northeast 479 551 29,000 -552 Descending Kansas City Center
Sat 04:52:54 PM 40.4100 -90.4314 40° Northeast 485 558 29,000  Level Chicago Center
Sat 04:53:55 PM 40.5356 -90.2931 40° Northeast 489 563 29,000  Level Chicago Center
Sat 04:54:57 PM 40.6383 -90.1736 41° Northeast 486 559 29,000  Level Chicago Center
Sat 04:55:59 PM 40.7400 -90.0558 41° Northeast 486 559 29,000 -195 Level Chicago Center
Sat 04:57:00 PM 40.8506 -89.9422 38° Northeast 496 571 28,600 -683 Descending Chicago Center
Sat 04:58:02 PM 40.9511 -89.8236 42° Northeast 489 563 27,600 -1,306 Descending Chicago Center
Sat 04:59:04 PM 41.0664 -89.6944 40° Northeast 499 574 25,900 -1,756 Descending Chicago Center
Sat 05:00:05 PM 41.1633 -89.5722 43° Northeast 482 555 24,000 -1,392 Descending Chicago Center
Sat 05:01:09 PM 41.2300 -89.4153 61° Northeast 484 557 23,000 -1,714 Descending Chicago Center
Sat 05:02:11 PM 41.2925 -89.2600 62° Northeast 477 549 20,400 -2,683 Descending Chicago Center
Sat 05:03:12 PM 41.3564 -89.0975 62° Northeast 454 522 17,500 -2,634 Descending Chicago Center
Sat 05:04:14 PM 41.4136 -88.9544 62° Northeast 441 507 15,000 -2,565 Descending Chicago Center
Sat 05:05:16 PM 41.4686 -88.8158 62° Northeast 427 491 12,200 -1,935 Descending Chicago Center
Sat 05:06:18 PM 41.5292 -88.6625 62° Northeast 389 448 11,000 -537 Descending Chicago Center
Sat 05:07:19 PM 41.5692 -88.5600 62° Northeast 320 368 11,100 -683 Climbing Chicago Center
Sat 05:08:21 PM 41.6119 -88.4600 60° Northeast 311 358 9,600 -1,403 Descending Chicago Center
Sat 05:09:23 PM 41.6636 -88.3742 51° Northeast 298 343 8,200 -1,268 Descending Chicago Center
Sat 05:10:24 PM 41.7417 -88.3556 10° North 294 338 7,000 -634 Descending Chicago Center
Sat 05:11:26 PM 41.8222 -88.3461 North 290 334 6,900 -726 Descending Chicago Center
Sat 05:12:28 PM 41.8997 -88.3361 North 282 325 5,500 -1,210 Descending Chicago Center
Sat 05:13:30 PM 41.9536 -88.2717 42° Northeast 242 278 4,400 -780 Descending Chicago Center
Sat 05:14:31 PM 41.9681 -88.1897 77° East 242 278 3,900 -492 Descending Chicago Center

Login

Don't have an account? Register now (free) for customized features, flight alerts, and more!